Time;durP1;ratioP1;P1;durP2;ratioP2;P2;SDS_P1;SDS_P2;PMS_P1;PMS_P2;Temp;Humidity;BMP_temperature;BMP_pressure;BME280_temperature;BME280_humidity;BME280_pressure;Samples;Min_cycle;Max_cycle;Signal;HPM_P1;HPM_P2
2023/09/30 00:00:11;;;;;;;57.77;2.30;;;;;;;;;;5135751;27;21079;-69
2023/09/30 00:02:38;;;;;;;58.23;2.30;;;;;;;;;;5135982;27;20451;-69
2023/09/30 00:05:05;;;;;;;56.27;2.30;;;;;;;;;;5135709;27;20767;-69
2023/09/30 00:07:32;;;;;;;56.70;2.33;;;;;;;;;;5135269;27;20528;-69
2023/09/30 00:10:00;;;;;;;56.50;2.37;;;;;;;;;;5135381;27;20486;-67
2023/09/30 00:12:28;;;;;;;56.37;2.30;;;;;;;;;;5135432;27;20452;-68
2023/09/30 00:14:55;;;;;;;56.73;2.37;;;;;;;;;;5135688;27;20450;-68
2023/09/30 00:17:22;;;;;;;56.50;2.40;;;;;;;;;;5135263;27;20843;-69
2023/09/30 00:19:50;;;;;;;56.27;2.40;;;;;;;;;;5135168;27;20451;-68
2023/09/30 00:22:17;;;;;;;57.63;2.57;;;;;;;;;;5135532;27;20455;-69
2023/09/30 00:24:44;;;;;;;56.80;2.30;;;;;;;;;;5135362;27;20948;-69
2023/09/30 00:27:11;;;;;;;56.87;2.27;;;;;;;;;;5135494;27;20472;-68
2023/09/30 00:29:39;;;;;;;56.60;2.63;;;;;;;;;;5134975;27;20487;-69
2023/09/30 00:32:07;;;;;;;56.53;2.40;;;;;;;;;;5135282;27;20441;-69
2023/09/30 00:34:34;;;;;;;57.00;2.93;;;;;;;;;;5134990;27;20491;-68
2023/09/30 00:37:02;;;;;;;56.60;2.20;;;;;;;;;;5135222;27;20456;-68
2023/09/30 00:39:30;;;;;;;56.60;2.37;;;;;;;;;;5134893;27;20811;-69
2023/09/30 00:41:58;;;;;;;56.57;2.73;;;;;;;;;;5135147;27;20536;-69
2023/09/30 00:44:26;;;;;;;57.00;2.30;;;;;;;;;;5134910;27;20444;-69
2023/09/30 00:46:55;;;;;;;56.67;2.30;;;;;;;;;;5135067;27;20448;-69
2023/09/30 00:49:23;;;;;;;60.30;2.43;;;;;;;;;;5134587;27;20870;-69
2023/09/30 00:51:51;;;;;;;56.77;2.50;;;;;;;;;;5133739;27;20452;-69
2023/09/30 00:54:19;;;;;;;56.80;2.37;;;;;;;;;;5133858;27;20866;-69
2023/09/30 00:56:46;;;;;;;56.47;2.30;;;;;;;;;;5133527;27;20448;-69
2023/09/30 00:59:14;;;;;;;56.43;2.23;;;;;;;;;;5133233;27;20463;-69
2023/09/30 01:01:43;;;;;;;56.43;2.33;;;;;;;;;;5133356;27;20471;-70
2023/09/30 01:04:12;;;;;;;56.67;2.50;;;;;;;;;;5133682;27;20976;-69
2023/09/30 01:06:39;;;;;;;56.47;2.20;;;;;;;;;;5133335;27;20445;-69
2023/09/30 01:09:06;;;;;;;57.07;2.53;;;;;;;;;;5132898;27;20798;-69
2023/09/30 01:11:33;;;;;;;56.77;2.60;;;;;;;;;;5130564;27;20485;-69
2023/09/30 01:14:00;;;;;;;56.47;2.37;;;;;;;;;;5139990;27;20445;-69
2023/09/30 01:16:27;;;;;;;57.00;2.60;;;;;;;;;;5141932;27;20815;-69
2023/09/30 01:18:54;;;;;;;56.77;2.60;;;;;;;;;;5138896;27;20467;-69
2023/09/30 01:21:24;;;;;;;56.27;2.30;;;;;;;;;;5135915;27;20445;-69
2023/09/30 01:23:53;;;;;;;56.50;2.40;;;;;;;;;;5133323;27;20452;-70
2023/09/30 01:26:20;;;;;;;56.60;2.33;;;;;;;;;;5133031;27;20445;-68
2023/09/30 01:28:48;;;;;;;58.80;2.67;;;;;;;;;;5141311;27;20593;-68
2023/09/30 01:31:16;;;;;;;56.57;2.50;;;;;;;;;;5150098;27;20484;-69
2023/09/30 01:33:43;;;;;;;56.67;2.10;;;;;;;;;;5153884;27;20443;-69
2023/09/30 01:36:11;;;;;;;56.80;2.20;;;;;;;;;;5153522;27;21038;-69
2023/09/30 01:38:38;;;;;;;56.67;2.30;;;;;;;;;;5153435;27;20834;-69
2023/09/30 01:41:06;;;;;;;56.70;2.40;;;;;;;;;;5153220;27;20432;-69
2023/09/30 01:43:35;;;;;;;56.53;2.33;;;;;;;;;;5143417;27;20440;-69
2023/09/30 01:46:02;;;;;;;56.47;2.40;;;;;;;;;;5153519;27;20448;-70
2023/09/30 01:48:29;;;;;;;56.60;2.23;;;;;;;;;;5153211;27;20468;-69
2023/09/30 01:50:56;;;;;;;57.47;2.63;;;;;;;;;;5113204;27;1125127;-70
2023/09/30 01:53:23;;;;;;;56.43;2.30;;;;;;;;;;5154552;27;20202;-70
2023/09/30 01:55:50;;;;;;;56.70;2.50;;;;;;;;;;5154517;27;20440;-70
2023/09/30 01:58:19;;;;;;;56.93;2.43;;;;;;;;;;5154087;27;20470;-70
2023/09/30 02:00:46;;;;;;;56.57;2.30;;;;;;;;;;5125320;27;20437;-70
2023/09/30 02:03:13;;;;;;;56.67;2.30;;;;;;;;;;5133224;27;20932;-70
2023/09/30 02:05:40;;;;;;;57.30;2.53;;;;;;;;;;5133890;27;20437;-70
2023/09/30 02:08:07;;;;;;;57.00;2.40;;;;;;;;;;5133343;27;20464;-70
2023/09/30 02:10:34;;;;;;;56.67;2.40;;;;;;;;;;5133294;27;20855;-70
2023/09/30 02:13:01;;;;;;;56.57;2.40;;;;;;;;;;5133149;27;20448;-70
2023/09/30 02:15:30;;;;;;;56.70;2.40;;;;;;;;;;5133069;27;20448;-71
2023/09/30 02:17:57;;;;;;;56.40;2.40;;;;;;;;;;5132842;27;20517;-71
2023/09/30 02:20:25;;;;;;;56.70;2.50;;;;;;;;;;5132039;27;20449;-71
2023/09/30 02:22:54;;;;;;;56.60;2.30;;;;;;;;;;5133339;27;20480;-71
2023/09/30 02:25:21;;;;;;;56.87;2.50;;;;;;;;;;5132998;27;20441;-69
2023/09/30 02:27:49;;;;;;;56.70;2.50;;;;;;;;;;5132809;27;20468;-69
2023/09/30 02:30:17;;;;;;;59.53;2.50;;;;;;;;;;5132331;27;20477;-69
2023/09/30 02:32:46;;;;;;;56.67;2.40;;;;;;;;;;5132802;27;20541;-69
2023/09/30 02:35:15;;;;;;;56.80;2.40;;;;;;;;;;5132746;27;20448;-69
2023/09/30 02:37:42;;;;;;;56.77;2.40;;;;;;;;;;5144638;27;20477;-69
2023/09/30 02:40:10;;;;;;;56.70;2.43;;;;;;;;;;5153077;27;20455;-70
2023/09/30 02:42:37;;;;;;;56.80;2.37;;;;;;;;;;5153647;27;20530;-70
2023/09/30 02:45:05;;;;;;;56.77;2.60;;;;;;;;;;5153269;27;20731;-69
2023/09/30 02:47:32;;;;;;;57.60;2.73;;;;;;;;;;5153120;27;20462;-70
2023/09/30 02:50:00;;;;;;;57.27;2.80;;;;;;;;;;5152779;27;20496;-70
2023/09/30 02:52:28;;;;;;;57.00;2.60;;;;;;;;;;5153301;27;20440;-70
2023/09/30 02:54:57;;;;;;;56.57;2.50;;;;;;;;;;5152963;27;20500;-70
2023/09/30 02:57:24;;;;;;;56.77;2.60;;;;;;;;;;5153039;27;20467;-70
2023/09/30 02:59:52;;;;;;;56.77;2.30;;;;;;;;;;5152958;27;20479;-70
2023/09/30 03:02:21;;;;;;;56.50;2.20;;;;;;;;;;5153109;27;20448;-70
2023/09/30 03:04:50;;;;;;;56.50;2.10;;;;;;;;;;5153035;27;20542;-70
2023/09/30 03:07:19;;;;;;;56.60;2.40;;;;;;;;;;5152732;27;20532;-70
2023/09/30 03:09:46;;;;;;;56.77;2.63;;;;;;;;;;5138998;27;20475;-70
2023/09/30 03:12:13;;;;;;;56.97;2.43;;;;;;;;;;5130268;27;21248;-71
2023/09/30 03:14:40;;;;;;;56.53;2.20;;;;;;;;;;5130994;27;20798;-71
2023/09/30 03:17:11;;;;;;;56.67;2.33;;;;;;;;;;5137773;27;20449;-71
2023/09/30 03:19:38;;;;;;;56.37;2.30;;;;;;;;;;5132012;27;20452;-71
2023/09/30 03:22:05;;;;;;;56.43;2.20;;;;;;;;;;5131835;27;20449;-71
2023/09/30 03:24:34;;;;;;;56.50;2.40;;;;;;;;;;5133248;27;20537;-71
2023/09/30 03:27:02;;;;;;;56.53;2.27;;;;;;;;;;5138246;27;20494;-71
2023/09/30 03:29:29;;;;;;;56.60;2.80;;;;;;;;;;5131793;27;21201;-71
2023/09/30 03:31:56;;;;;;;57.80;2.63;;;;;;;;;;5131634;27;20481;-71
2023/09/30 03:34:23;;;;;;;56.70;2.50;;;;;;;;;;5131667;27;20966;-71
2023/09/30 03:36:50;;;;;;;56.63;2.60;;;;;;;;;;5131542;27;20536;-71
2023/09/30 03:39:26;;;;;;;56.40;2.17;;;;;;;;;;5131622;27;20472;-71
2023/09/30 03:41:54;;;;;;;56.50;2.30;;;;;;;;;;5132030;27;20444;-72
2023/09/30 03:44:23;;;;;;;57.10;2.60;;;;;;;;;;5131724;27;20842;-71
2023/09/30 03:46:51;;;;;;;63.80;3.00;;;;;;;;;;5131175;27;20560;-71
2023/09/30 03:49:19;;;;;;;56.33;2.30;;;;;;;;;;5131252;27;20465;-71
2023/09/30 03:51:46;;;;;;;57.00;2.80;;;;;;;;;;5131841;27;20473;-71
2023/09/30 03:54:14;;;;;;;56.50;2.40;;;;;;;;;;5131849;27;20832;-71
2023/09/30 03:56:41;;;;;;;56.40;2.37;;;;;;;;;;5131674;27;20528;-71
2023/09/30 03:59:09;;;;;;;57.00;2.63;;;;;;;;;;5131254;27;20467;-71
2023/09/30 04:01:39;;;;;;;56.57;2.33;;;;;;;;;;5131624;27;20498;-72
2023/09/30 04:04:08;;;;;;;56.87;2.60;;;;;;;;;;5131721;27;20940;-72
2023/09/30 04:06:38;;;;;;;56.47;2.20;;;;;;;;;;5131885;27;20447;-71
2023/09/30 04:09:09;;;;;;;56.67;2.40;;;;;;;;;;5131428;27;20889;-69
2023/09/30 04:11:36;;;;;;;57.67;3.57;;;;;;;;;;5131540;27;20485;-69
2023/09/30 04:14:03;;;;;;;57.20;2.80;;;;;;;;;;5131540;27;20449;-70
2023/09/30 04:16:32;;;;;;;57.00;2.73;;;;;;;;;;5131194;27;20590;-71
2023/09/30 04:19:00;;;;;;;56.47;2.40;;;;;;;;;;5131173;27;20822;-70
2023/09/30 04:21:28;;;;;;;57.30;3.10;;;;;;;;;;5131418;27;20440;-70
2023/09/30 04:23:56;;;;;;;57.90;2.67;;;;;;;;;;5131522;27;20536;-71
2023/09/30 04:26:23;;;;;;;56.40;2.40;;;;;;;;;;5131256;27;20452;-70
2023/09/30 04:28:51;;;;;;;56.70;2.60;;;;;;;;;;5131250;27;20460;-70
2023/09/30 04:31:18;;;;;;;62.93;3.10;;;;;;;;;;5132004;27;20480;-70
2023/09/30 04:33:46;;;;;;;56.80;2.70;;;;;;;;;;5130951;27;20543;-70
2023/09/30 04:36:14;;;;;;;56.57;2.30;;;;;;;;;;5131375;27;20472;-70
2023/09/30 04:38:41;;;;;;;56.60;2.23;;;;;;;;;;5131067;27;20465;-70
2023/09/30 04:41:08;;;;;;;56.40;2.40;;;;;;;;;;5131221;27;20436;-70
2023/09/30 04:43:37;;;;;;;56.67;2.40;;;;;;;;;;5132247;27;20448;-70
2023/09/30 04:46:07;;;;;;;56.30;2.30;;;;;;;;;;5134956;27;20452;-70
2023/09/30 04:48:34;;;;;;;56.77;2.50;;;;;;;;;;5134919;27;20474;-70
2023/09/30 04:51:04;;;;;;;56.50;2.30;;;;;;;;;;5134886;27;20530;-70
2023/09/30 04:53:33;;;;;;;56.33;2.40;;;;;;;;;;5134938;27;20448;-70
2023/09/30 04:56:01;;;;;;;56.90;3.00;;;;;;;;;;5134645;27;20449;-71
2023/09/30 04:58:29;;;;;;;56.67;2.27;;;;;;;;;;5134932;27;20468;-70
2023/09/30 05:00:56;;;;;;;56.67;2.63;;;;;;;;;;5134894;27;20459;-71
2023/09/30 05:03:24;;;;;;;56.57;2.63;;;;;;;;;;5135057;27;20863;-71
2023/09/30 05:05:53;;;;;;;56.70;2.50;;;;;;;;;;5134614;27;20449;-71
2023/09/30 05:08:21;;;;;;;56.63;2.80;;;;;;;;;;5134512;27;20866;-71
2023/09/30 05:10:49;;;;;;;56.53;2.50;;;;;;;;;;5134447;27;20437;-71
2023/09/30 05:13:16;;;;;;;57.00;2.80;;;;;;;;;;5141046;27;20456;-71
2023/09/30 05:15:43;;;;;;;56.40;2.30;;;;;;;;;;5147930;27;20441;-71
2023/09/30 05:18:10;;;;;;;58.10;3.07;;;;;;;;;;5143101;27;20468;-71
2023/09/30 05:20:38;;;;;;;56.70;2.57;;;;;;;;;;5135749;27;20556;-71
2023/09/30 05:23:06;;;;;;;56.60;2.40;;;;;;;;;;5141277;27;20436;-71
2023/09/30 05:25:36;;;;;;;56.57;2.50;;;;;;;;;;5134482;27;20498;-71
2023/09/30 05:28:05;;;;;;;56.60;2.40;;;;;;;;;;5134214;27;20508;-71
2023/09/30 05:30:33;;;;;;;56.53;2.57;;;;;;;;;;5142725;27;20872;-70
2023/09/30 05:33:00;;;;;;;56.50;2.50;;;;;;;;;;5134197;27;20504;-72
2023/09/30 05:35:28;;;;;;;56.43;2.30;;;;;;;;;;5134090;27;20451;-71
2023/09/30 05:37:55;;;;;;;56.70;2.30;;;;;;;;;;5134242;27;20468;-71
2023/09/30 05:40:24;;;;;;;56.47;2.43;;;;;;;;;;5134106;27;20448;-69
2023/09/30 05:42:54;;;;;;;57.40;2.70;;;;;;;;;;5134030;27;20494;-70
2023/09/30 05:45:21;;;;;;;56.23;2.43;;;;;;;;;;5141645;27;20506;-70
2023/09/30 05:47:48;;;;;;;56.57;2.60;;;;;;;;;;5134461;27;20827;-71
2023/09/30 05:50:16;;;;;;;57.60;2.50;;;;;;;;;;5133542;27;20449;-71
2023/09/30 05:52:44;;;;;;;56.57;2.57;;;;;;;;;;5133695;27;20484;-71
2023/09/30 05:55:11;;;;;;;56.33;2.40;;;;;;;;;;5132735;27;20444;-70
2023/09/30 05:57:39;;;;;;;57.63;2.50;;;;;;;;;;5133634;27;20843;-69
2023/09/30 06:00:27;;;;;;;57.00;2.70;;;;;;;;;;5133680;27;20433;-69
2023/09/30 06:02:55;;;;;;;56.40;2.27;;;;;;;;;;5134154;27;20520;-70
2023/09/30 06:05:23;;;;;;;56.30;2.30;;;;;;;;;;5133503;27;20505;-70
2023/09/30 06:07:50;;;;;;;56.30;2.40;;;;;;;;;;5133436;27;20523;-70
2023/09/30 06:10:18;;;;;;;56.50;2.40;;;;;;;;;;5133425;27;20973;-69
2023/09/30 06:12:46;;;;;;;58.40;3.33;;;;;;;;;;5133285;27;20520;-70
2023/09/30 06:15:15;;;;;;;56.90;3.00;;;;;;;;;;5133130;27;20926;-70
2023/09/30 06:17:42;;;;;;;56.87;2.67;;;;;;;;;;5133245;27;21003;-71
2023/09/30 06:20:16;;;;;;;56.60;2.50;;;;;;;;;;5133454;27;20460;-69
2023/09/30 06:22:43;;;;;;;56.53;2.30;;;;;;;;;;5133297;27;20541;-69
2023/09/30 06:25:10;;;;;;;56.77;2.90;;;;;;;;;;5133055;27;20460;-69
2023/09/30 06:27:38;;;;;;;56.37;2.40;;;;;;;;;;5132967;27;20468;-69
2023/09/30 06:30:06;;;;;;;56.27;2.40;;;;;;;;;;5133671;27;20452;-69
2023/09/30 06:32:35;;;;;;;56.20;2.23;;;;;;;;;;5133128;27;20855;-69
2023/09/30 06:35:02;;;;;;;56.17;2.50;;;;;;;;;;5132963;27;20445;-69
2023/09/30 06:37:30;;;;;;;56.57;2.97;;;;;;;;;;5132629;27;20514;-69
2023/09/30 06:39:57;;;;;;;56.50;2.70;;;;;;;;;;5124534;27;20456;-69
2023/09/30 06:42:24;;;;;;;56.73;2.30;;;;;;;;;;5132768;27;20804;-70
2023/09/30 06:44:52;;;;;;;57.57;2.90;;;;;;;;;;5135507;27;21423;-69
2023/09/30 06:47:20;;;;;;;56.57;2.90;;;;;;;;;;5153504;27;20468;-70
2023/09/30 06:49:49;;;;;;;56.37;2.30;;;;;;;;;;5153178;27;20797;-67
2023/09/30 06:52:17;;;;;;;58.50;2.63;;;;;;;;;;5153067;27;20483;-68
2023/09/30 06:54:44;;;;;;;57.17;2.67;;;;;;;;;;5153082;27;20448;-70
2023/09/30 06:57:11;;;;;;;56.47;2.33;;;;;;;;;;5153465;27;20442;-69
2023/09/30 06:59:38;;;;;;;57.10;2.70;;;;;;;;;;5153279;27;20469;-70
2023/09/30 07:02:05;;;;;;;56.50;2.30;;;;;;;;;;5153345;27;20555;-70
2023/09/30 07:04:32;;;;;;;56.70;2.40;;;;;;;;;;5153228;27;20453;-71
2023/09/30 07:07:01;;;;;;;56.37;2.57;;;;;;;;;;5120436;27;20452;-68
2023/09/30 07:09:28;;;;;;;56.47;2.73;;;;;;;;;;5131366;27;20441;-70
2023/09/30 07:11:55;;;;;;;56.40;2.20;;;;;;;;;;5131541;27;20514;-70
2023/09/30 07:14:22;;;;;;;57.10;3.00;;;;;;;;;;5130396;27;20812;-70
2023/09/30 07:16:49;;;;;;;56.70;3.43;;;;;;;;;;5132279;27;20451;-69
2023/09/30 07:19:16;;;;;;;56.60;2.30;;;;;;;;;;5132004;27;20467;-70
2023/09/30 07:21:43;;;;;;;56.30;2.37;;;;;;;;;;5132162;27;20452;-69
2023/09/30 07:24:11;;;;;;;56.47;2.30;;;;;;;;;;5132142;27;20448;-69
2023/09/30 07:26:39;;;;;;;56.27;2.17;;;;;;;;;;5132274;27;20445;-69
2023/09/30 07:29:06;;;;;;;56.47;2.20;;;;;;;;;;5131966;27;20460;-69
2023/09/30 07:31:35;;;;;;;56.60;2.87;;;;;;;;;;5132005;27;20808;-69
2023/09/30 07:34:02;;;;;;;57.00;2.47;;;;;;;;;;5132125;27;20528;-69
2023/09/30 07:36:29;;;;;;;56.40;2.20;;;;;;;;;;5132057;27;20449;-69
2023/09/30 07:38:56;;;;;;;56.37;2.40;;;;;;;;;;5132012;27;20460;-69
2023/09/30 07:41:25;;;;;;;56.57;2.60;;;;;;;;;;5132280;27;20437;-69
2023/09/30 07:43:52;;;;;;;57.10;2.43;;;;;;;;;;5131683;27;20573;-70
2023/09/30 07:46:19;;;;;;;57.23;2.37;;;;;;;;;;5131733;27;20940;-69
2023/09/30 07:48:46;;;;;;;56.67;2.60;;;;;;;;;;5131562;27;20452;-70
2023/09/30 07:51:15;;;;;;;56.70;2.50;;;;;;;;;;5132011;27;20451;-70
2023/09/30 07:53:42;;;;;;;57.57;2.40;;;;;;;;;;5131832;27;20533;-70
2023/09/30 07:56:09;;;;;;;56.80;2.60;;;;;;;;;;5131862;27;20808;-69
2023/09/30 07:58:37;;;;;;;56.57;2.60;;;;;;;;;;5131599;27;20468;-70
2023/09/30 08:01:04;;;;;;;56.70;2.20;;;;;;;;;;5131597;27;20453;-70
2023/09/30 08:03:32;;;;;;;56.47;2.27;;;;;;;;;;5131646;27;20476;-69
2023/09/30 08:05:59;;;;;;;56.07;2.27;;;;;;;;;;5131517;27;20440;-69
2023/09/30 08:08:26;;;;;;;56.90;2.40;;;;;;;;;;5131863;27;20472;-69
2023/09/30 08:10:55;;;;;;;56.07;2.40;;;;;;;;;;5131614;27;20451;-70
2023/09/30 08:13:23;;;;;;;56.70;2.43;;;;;;;;;;5131625;27;20477;-70
2023/09/30 08:15:53;;;;;;;56.30;2.30;;;;;;;;;;5131505;27;20444;-70
2023/09/30 08:18:20;;;;;;;56.33;2.20;;;;;;;;;;5132029;27;20504;-70
2023/09/30 08:20:47;;;;;;;56.80;2.70;;;;;;;;;;5135600;27;20448;-70
2023/09/30 08:23:15;;;;;;;56.30;2.33;;;;;;;;;;5135800;27;20941;-71
2023/09/30 08:25:42;;;;;;;56.37;2.07;;;;;;;;;;5135426;27;20507;-70
2023/09/30 08:28:09;;;;;;;56.67;2.57;;;;;;;;;;5135306;27;20898;-70
2023/09/30 08:30:37;;;;;;;56.13;2.17;;;;;;;;;;5135124;27;20856;-70
2023/09/30 08:33:07;;;;;;;56.40;2.20;;;;;;;;;;5135235;27;20488;-70
2023/09/30 08:35:36;;;;;;;56.37;2.17;;;;;;;;;;5135099;27;20464;-70
2023/09/30 08:38:04;;;;;;;57.63;2.53;;;;;;;;;;5135260;27;20869;-71
2023/09/30 08:40:31;;;;;;;57.40;2.70;;;;;;;;;;5135044;27;20476;-69
2023/09/30 08:42:59;;;;;;;57.60;2.73;;;;;;;;;;5135723;27;20451;-69
2023/09/30 08:45:29;;;;;;;56.70;2.73;;;;;;;;;;5135134;27;20449;-69
2023/09/30 08:47:56;;;;;;;60.83;2.90;;;;;;;;;;5135283;27;20835;-70
2023/09/30 08:50:25;;;;;;;57.97;2.87;;;;;;;;;;5134916;27;20653;-70
2023/09/30 08:52:52;;;;;;;56.70;2.70;;;;;;;;;;5135025;27;20487;-72
2023/09/30 08:55:19;;;;;;;56.87;2.63;;;;;;;;;;5135031;27;20850;-70
2023/09/30 08:57:47;;;;;;;57.17;2.20;;;;;;;;;;5134571;27;20468;-70
2023/09/30 09:00:16;;;;;;;56.00;1.80;;;;;;;;;;5134776;27;20459;-70
2023/09/30 09:02:43;;;;;;;56.43;2.50;;;;;;;;;;5131502;27;20492;-69
2023/09/30 09:05:11;;;;;;;56.43;2.17;;;;;;;;;;5146685;27;20447;-69
2023/09/30 09:07:39;;;;;;;56.40;2.10;;;;;;;;;;5144792;27;20459;-70
2023/09/30 09:10:07;;;;;;;57.27;2.77;;;;;;;;;;5126218;27;20920;-70
2023/09/30 09:12:35;;;;;;;56.17;2.00;;;;;;;;;;5132411;27;20525;-69
2023/09/30 09:15:02;;;;;;;56.73;2.60;;;;;;;;;;5134357;27;20437;-69
2023/09/30 09:17:41;;;;;;;56.50;2.30;;;;;;;;;;5146019;27;20474;-69
2023/09/30 09:20:10;;;;;;;56.40;2.40;;;;;;;;;;5139349;27;20488;-69
2023/09/30 09:22:42;;;;;;;56.97;2.50;;;;;;;;;;5155120;27;20436;-70
2023/09/30 09:25:10;;;;;;;56.13;2.10;;;;;;;;;;5154838;27;20443;-69
2023/09/30 09:27:36;;;;;;;56.20;2.17;;;;;;;;;;5155041;27;20466;-69
2023/09/30 09:30:19;;;;;;;58.20;2.60;;;;;;;;;;5154599;27;20496;-69
2023/09/30 09:32:57;;;;;;;57.00;2.20;;;;;;;;;;5154466;27;20489;-69
2023/09/30 09:35:28;;;;;;;56.57;2.10;;;;;;;;;;5154704;27;20453;-69
2023/09/30 09:37:57;;;;;;;56.50;2.20;;;;;;;;;;5154656;27;20546;-69
2023/09/30 09:40:24;;;;;;;57.40;3.13;;;;;;;;;;5154677;27;20452;-70
2023/09/30 09:42:54;;;;;;;56.00;2.40;;;;;;;;;;5145554;27;20449;-68
2023/09/30 09:45:23;;;;;;;57.27;3.63;;;;;;;;;;5130016;27;20455;-69
2023/09/30 09:47:51;;;;;;;56.50;2.40;;;;;;;;;;5144331;27;20469;-69
2023/09/30 09:50:18;;;;;;;56.57;2.03;;;;;;;;;;5139017;27;20463;-68
2023/09/30 09:52:48;;;;;;;56.47;2.13;;;;;;;;;;5145922;27;20511;-69
2023/09/30 09:55:17;;;;;;;56.27;2.17;;;;;;;;;;5140983;27;20451;-69
2023/09/30 09:57:45;;;;;;;56.50;2.10;;;;;;;;;;5133414;27;20481;-69
2023/09/30 10:00:14;;;;;;;56.30;1.90;;;;;;;;;;5142033;27;20463;-70
2023/09/30 10:02:41;;;;;;;56.53;2.40;;;;;;;;;;5150614;27;21203;-69
2023/09/30 10:05:11;;;;;;;56.20;2.07;;;;;;;;;;5154063;27;20956;-68
2023/09/30 10:07:40;;;;;;;56.50;2.50;;;;;;;;;;5154032;27;20467;-68
2023/09/30 10:10:09;;;;;;;56.20;1.97;;;;;;;;;;5124886;27;20437;-69
2023/09/30 10:12:41;;;;;;;56.20;2.20;;;;;;;;;;5133141;27;21109;-69
2023/09/30 10:15:27;;;;;;;55.60;1.80;;;;;;;;;;5133242;27;20437;-69
2023/09/30 10:18:00;;;;;;;55.90;1.90;;;;;;;;;;5133050;27;20835;-69
2023/09/30 10:20:29;;;;;;;56.00;2.10;;;;;;;;;;5133193;27;20818;-69
2023/09/30 10:23:11;;;;;;;57.27;2.00;;;;;;;;;;5133083;27;20439;-70
2023/09/30 10:25:39;;;;;;;56.13;1.80;;;;;;;;;;5132850;27;20444;-67
2023/09/30 10:28:21;;;;;;;55.17;1.70;;;;;;;;;;5132967;27;20469;-69
2023/09/30 10:31:02;;;;;;;55.97;2.33;;;;;;;;;;5132449;27;20447;-69
2023/09/30 10:33:31;;;;;;;55.20;1.80;;;;;;;;;;5132985;27;20486;-69
2023/09/30 10:35:58;;;;;;;55.20;1.83;;;;;;;;;;5132551;27;20445;-69
2023/09/30 10:38:38;;;;;;;54.97;1.87;;;;;;;;;;5132766;27;20460;-69
2023/09/30 10:41:05;;;;;;;55.37;1.80;;;;;;;;;;5131819;27;20436;-69
2023/09/30 10:43:32;;;;;;;55.70;1.87;;;;;;;;;;5132797;27;20444;-69
2023/09/30 10:45:59;;;;;;;55.50;2.53;;;;;;;;;;5130222;27;20441;-69
2023/09/30 10:48:38;;;;;;;55.97;2.20;;;;;;;;;;5131798;27;21059;-69
2023/09/30 10:51:15;;;;;;;55.80;2.17;;;;;;;;;;5131478;27;20452;-68
2023/09/30 10:53:43;;;;;;;55.63;2.10;;;;;;;;;;5132595;27;20488;-68
2023/09/30 10:56:10;;;;;;;55.50;1.83;;;;;;;;;;5132482;27;20445;-69
2023/09/30 10:58:41;;;;;;;55.50;2.00;;;;;;;;;;5132241;27;20500;-70
2023/09/30 11:01:08;;;;;;;55.50;1.83;;;;;;;;;;5132146;27;20452;-69
2023/09/30 11:03:36;;;;;;;56.43;2.57;;;;;;;;;;5132437;27;20448;-69
2023/09/30 11:06:04;;;;;;;55.30;1.67;;;;;;;;;;5130224;27;20456;-69
2023/09/30 11:08:32;;;;;;;55.37;1.80;;;;;;;;;;5140660;27;20800;-69
2023/09/30 11:11:00;;;;;;;55.57;1.87;;;;;;;;;;5140445;27;20440;-68
2023/09/30 11:13:32;;;;;;;55.50;2.40;;;;;;;;;;5140523;27;20492;-68
2023/09/30 11:16:04;;;;;;;55.67;2.10;;;;;;;;;;5151374;27;20444;-68
2023/09/30 11:18:31;;;;;;;55.00;1.80;;;;;;;;;;5140877;27;20874;-69
2023/09/30 11:21:06;;;;;;;55.10;1.80;;;;;;;;;;5140611;27;20452;-69
2023/09/30 11:23:34;;;;;;;55.50;2.20;;;;;;;;;;5131891;27;20449;-69
2023/09/30 11:26:01;;;;;;;55.80;2.20;;;;;;;;;;5131848;27;21010;-69
2023/09/30 11:28:36;;;;;;;56.27;1.90;;;;;;;;;;5131984;27;20576;-69
2023/09/30 11:31:06;;;;;;;55.07;1.80;;;;;;;;;;5131870;27;20452;-69
2023/09/30 11:33:34;;;;;;;55.30;1.60;;;;;;;;;;5138846;27;20915;-69
2023/09/30 11:36:03;;;;;;;55.80;2.07;;;;;;;;;;5132946;27;20798;-69
2023/09/30 11:38:32;;;;;;;55.60;1.90;;;;;;;;;;5131954;27;20473;-69
2023/09/30 11:41:00;;;;;;;56.07;2.23;;;;;;;;;;5131860;27;20445;-70
2023/09/30 11:43:29;;;;;;;56.57;2.20;;;;;;;;;;5131889;27;20444;-69
2023/09/30 11:46:05;;;;;;;56.17;2.47;;;;;;;;;;5131630;27;20501;-68
2023/09/30 11:48:32;;;;;;;56.67;2.20;;;;;;;;;;5131566;27;20825;-69
2023/09/30 11:51:02;;;;;;;56.13;1.83;;;;;;;;;;5131316;27;20460;-69
2023/09/30 11:53:31;;;;;;;55.70;1.90;;;;;;;;;;5134503;27;20495;-69
2023/09/30 11:55:59;;;;;;;55.87;2.70;;;;;;;;;;5136085;27;20448;-68
2023/09/30 11:58:27;;;;;;;55.60;2.00;;;;;;;;;;5136063;27;20465;-69
2023/09/30 12:00:59;;;;;;;55.20;1.40;;;;;;;;;;5135600;27;20449;-69
2023/09/30 12:03:27;;;;;;;55.57;2.00;;;;;;;;;;5135732;27;20967;-69
2023/09/30 12:05:55;;;;;;;55.77;2.20;;;;;;;;;;5135657;27;20543;-69
2023/09/30 12:08:22;;;;;;;55.17;1.90;;;;;;;;;;5135750;27;20472;-69
2023/09/30 12:10:51;;;;;;;55.97;2.00;;;;;;;;;;5153021;27;20451;-68
2023/09/30 12:13:18;;;;;;;55.80;2.57;;;;;;;;;;5156241;27;20483;-67
2023/09/30 12:15:45;;;;;;;55.57;2.03;;;;;;;;;;5156172;27;20495;-68
2023/09/30 12:18:16;;;;;;;57.20;2.50;;;;;;;;;;5156430;27;20833;-69
2023/09/30 12:20:44;;;;;;;56.20;2.80;;;;;;;;;;5156447;27;20451;-69
2023/09/30 12:23:11;;;;;;;56.07;2.30;;;;;;;;;;5156133;27;20450;-69
2023/09/30 12:25:38;;;;;;;56.30;1.93;;;;;;;;;;5156140;27;20450;-68
2023/09/30 12:28:07;;;;;;;57.00;2.20;;;;;;;;;;5156248;27;20471;-68
2023/09/30 12:30:34;;;;;;;56.50;2.30;;;;;;;;;;5155919;27;20439;-68
2023/09/30 12:33:01;;;;;;;56.37;2.50;;;;;;;;;;5156010;27;20439;-69
2023/09/30 12:35:28;;;;;;;57.17;2.10;;;;;;;;;;5155973;27;20439;-68
2023/09/30 12:37:55;;;;;;;56.50;1.90;;;;;;;;;;5155766;27;20478;-67
2023/09/30 12:40:22;;;;;;;56.43;2.70;;;;;;;;;;5155803;27;20447;-69
2023/09/30 12:42:49;;;;;;;56.30;2.30;;;;;;;;;;5155580;27;20516;-68
2023/09/30 12:45:18;;;;;;;56.00;2.43;;;;;;;;;;5156168;27;20438;-70
2023/09/30 12:47:47;;;;;;;55.50;1.90;;;;;;;;;;5155890;27;20471;-68
2023/09/30 12:50:14;;;;;;;56.57;2.10;;;;;;;;;;5155461;27;20455;-69
2023/09/30 12:52:41;;;;;;;56.20;2.10;;;;;;;;;;5155651;27;20461;-69
2023/09/30 12:55:09;;;;;;;56.37;2.40;;;;;;;;;;5155349;27;20859;-69
2023/09/30 12:57:36;;;;;;;55.77;1.93;;;;;;;;;;5155894;27;20950;-69
2023/09/30 13:00:04;;;;;;;56.47;2.97;;;;;;;;;;5155430;27;20471;-69
2023/09/30 13:02:32;;;;;;;56.17;2.17;;;;;;;;;;5155606;27;20448;-69
2023/09/30 13:04:59;;;;;;;56.27;2.30;;;;;;;;;;5154464;27;20916;-68
2023/09/30 13:07:26;;;;;;;55.80;2.13;;;;;;;;;;5155306;27;20542;-70
2023/09/30 13:09:54;;;;;;;55.67;1.90;;;;;;;;;;5155171;27;20943;-68
2023/09/30 13:12:21;;;;;;;56.37;2.63;;;;;;;;;;5155516;27;20448;-70
2023/09/30 13:14:48;;;;;;;55.60;2.03;;;;;;;;;;5155237;27;20483;-69
2023/09/30 13:17:16;;;;;;;56.17;2.30;;;;;;;;;;5155166;27;20443;-69
2023/09/30 13:19:44;;;;;;;56.40;2.10;;;;;;;;;;5155004;27;20908;-68
2023/09/30 13:22:12;;;;;;;56.40;2.50;;;;;;;;;;5155540;27;20452;-68
2023/09/30 13:24:42;;;;;;;56.70;2.17;;;;;;;;;;5148260;27;20445;-68
2023/09/30 13:27:09;;;;;;;56.10;2.00;;;;;;;;;;5134169;27;20892;-68
2023/09/30 13:29:36;;;;;;;55.87;2.20;;;;;;;;;;5134202;27;20444;-69
2023/09/30 13:32:04;;;;;;;56.90;2.87;;;;;;;;;;5134217;27;20448;-68
2023/09/30 13:34:31;;;;;;;56.20;2.20;;;;;;;;;;5134123;27;20476;-69
2023/09/30 13:36:59;;;;;;;56.43;2.60;;;;;;;;;;5133842;27;20440;-69
2023/09/30 13:39:27;;;;;;;56.17;2.23;;;;;;;;;;5134031;27;20445;-69
2023/09/30 13:41:54;;;;;;;55.67;1.90;;;;;;;;;;5133901;27;20457;-69
2023/09/30 13:44:21;;;;;;;55.80;2.00;;;;;;;;;;5133951;27;20480;-69
2023/09/30 13:46:49;;;;;;;56.27;2.37;;;;;;;;;;5133870;27;20812;-69
2023/09/30 13:49:17;;;;;;;57.40;2.80;;;;;;;;;;5133824;27;20522;-69
2023/09/30 13:51:44;;;;;;;56.10;2.30;;;;;;;;;;5134205;27;20444;-68
2023/09/30 13:54:14;;;;;;;55.57;2.10;;;;;;;;;;5133708;27;20511;-68
2023/09/30 13:56:42;;;;;;;56.63;2.00;;;;;;;;;;5133678;27;20456;-68
2023/09/30 13:59:09;;;;;;;55.80;1.80;;;;;;;;;;5133449;27;20476;-68
2023/09/30 14:01:36;;;;;;;57.30;1.97;;;;;;;;;;5133670;27;20445;-68
2023/09/30 14:04:04;;;;;;;56.17;2.00;;;;;;;;;;5133288;27;20445;-68
2023/09/30 14:06:31;;;;;;;55.90;2.50;;;;;;;;;;5133468;27;20456;-68
2023/09/30 14:08:58;;;;;;;55.80;2.00;;;;;;;;;;5133079;27;20461;-69
2023/09/30 14:11:27;;;;;;;55.90;1.90;;;;;;;;;;5133403;27;20445;-68
2023/09/30 14:13:54;;;;;;;55.67;2.20;;;;;;;;;;5133252;27;20525;-69
2023/09/30 14:16:21;;;;;;;59.20;2.10;;;;;;;;;;5132199;27;20440;-69
2023/09/30 14:18:49;;;;;;;56.90;2.37;;;;;;;;;;5133036;27;20472;-69
2023/09/30 14:21:18;;;;;;;58.30;3.27;;;;;;;;;;5133213;27;20445;-69
2023/09/30 14:23:45;;;;;;;57.13;2.67;;;;;;;;;;5133241;27;20445;-69
2023/09/30 14:26:12;;;;;;;55.87;2.10;;;;;;;;;;5132941;27;20455;-69
2023/09/30 14:28:41;;;;;;;56.47;2.07;;;;;;;;;;5133013;27;20460;-68
2023/09/30 14:31:08;;;;;;;56.47;2.40;;;;;;;;;;5132563;27;20931;-68
2023/09/30 14:33:35;;;;;;;56.10;2.00;;;;;;;;;;5133277;27;20827;-68
2023/09/30 14:36:05;;;;;;;58.70;2.40;;;;;;;;;;5132914;27;20439;-68